createdAt,value
2019-06-20T00:02:43.263Z,2.03
2019-06-20T00:06:07.897Z,2.00
2019-06-20T00:09:32.345Z,2.47
2019-06-20T00:13:00.593Z,2.67
2019-06-20T00:16:22.663Z,3.10
2019-06-20T00:19:47.018Z,2.93
2019-06-20T00:23:11.982Z,3.17
2019-06-20T00:26:36.343Z,2.73
2019-06-20T00:30:00.691Z,3.57
2019-06-20T00:33:26.053Z,3.00
2019-06-20T00:36:51.437Z,2.60
2019-06-20T00:40:16.345Z,2.73
2019-06-20T00:43:41.464Z,2.60
2019-06-20T00:47:05.754Z,2.50
2019-06-20T00:50:30.113Z,2.77
2019-06-20T00:53:54.402Z,2.50
2019-06-20T00:57:18.698Z,2.40
2019-06-20T01:00:43.118Z,3.07
2019-06-20T01:04:07.765Z,3.07
2019-06-20T01:07:32.383Z,3.30
2019-06-20T01:10:56.661Z,2.63
2019-06-20T01:14:20.959Z,3.33
2019-06-20T01:17:45.406Z,3.47
2019-06-20T01:21:09.718Z,3.53
2019-06-20T01:24:34.087Z,2.80
2019-06-20T01:27:58.403Z,2.50
2019-06-20T01:31:22.669Z,3.10
2019-06-20T01:34:46.955Z,2.57
2019-06-20T01:38:11.279Z,2.40
2019-06-20T01:41:35.557Z,2.50
2019-06-20T01:44:59.847Z,2.17
2019-06-20T01:48:24.128Z,2.63
2019-06-20T01:51:48.415Z,3.00
2019-06-20T01:55:13.121Z,2.77
2019-06-20T01:58:37.405Z,2.67
2019-06-20T02:02:01.955Z,2.60
2019-06-20T02:05:26.232Z,2.60
2019-06-20T02:08:50.608Z,2.80
2019-06-20T02:12:14.893Z,2.57
2019-06-20T02:15:39.336Z,2.33
2019-06-20T02:19:03.692Z,2.50
2019-06-20T02:22:28.006Z,2.33
2019-06-20T02:25:52.368Z,2.70
2019-06-20T02:29:16.702Z,2.80
2019-06-20T02:32:40.993Z,2.70
2019-06-20T02:36:05.277Z,2.60
2019-06-20T02:39:29.579Z,2.70
2019-06-20T02:42:53.957Z,2.60
2019-06-20T02:46:19.189Z,2.77
2019-06-20T02:49:43.474Z,2.87
2019-06-20T02:53:07.776Z,2.93
2019-06-20T02:56:32.060Z,4.07
2019-06-20T02:59:56.357Z,3.70
2019-06-20T03:03:20.744Z,3.57
2019-06-20T03:06:45.498Z,3.20
2019-06-20T03:10:10.697Z,3.90
2019-06-20T03:13:35.898Z,3.20
2019-06-20T03:17:00.209Z,3.60
2019-06-20T03:20:24.529Z,3.90
2019-06-20T03:23:48.937Z,3.13
2019-06-20T03:27:13.250Z,3.80
2019-06-20T03:30:37.547Z,3.70
2019-06-20T03:34:01.918Z,3.73
2019-06-20T03:37:26.212Z,3.47
2019-06-20T03:40:50.540Z,4.57
2019-06-20T03:44:14.871Z,4.23
2019-06-20T03:47:39.168Z,4.50
2019-06-20T03:51:03.453Z,3.90
2019-06-20T03:54:28.722Z,4.03
2019-06-20T03:57:52.996Z,4.00
2019-06-20T04:01:17.298Z,3.97
2019-06-20T04:04:41.672Z,3.97
2019-06-20T04:08:06.101Z,3.83
2019-06-20T04:11:30.512Z,4.10
2019-06-20T04:14:55.202Z,3.83
2019-06-20T04:18:19.514Z,4.03
2019-06-20T04:21:43.886Z,3.53
2019-06-20T04:25:08.582Z,3.60
2019-06-20T04:28:32.923Z,3.20
2019-06-20T04:31:57.241Z,4.10
2019-06-20T04:35:21.572Z,3.37
2019-06-20T04:38:45.857Z,3.33
2019-06-20T04:42:10.173Z,3.93
2019-06-20T04:45:41.902Z,3.10
2019-06-20T04:49:06.735Z,3.30
2019-06-20T04:52:31.032Z,3.27
2019-06-20T04:55:55.317Z,2.93
2019-06-20T04:59:19.765Z,3.10
2019-06-20T05:02:44.066Z,3.37
2019-06-20T05:06:08.371Z,3.07
2019-06-20T05:09:32.705Z,2.93
2019-06-20T05:12:57.045Z,2.63
2019-06-20T05:16:21.346Z,3.00
2019-06-20T05:19:45.668Z,2.90
2019-06-20T05:23:11.089Z,3.40
2019-06-20T05:26:35.395Z,3.57
2019-06-20T05:29:59.688Z,3.20
2019-06-20T05:33:25.054Z,3.60
2019-06-20T05:36:49.871Z,3.40
2019-06-20T05:40:14.690Z,3.43
2019-06-20T05:43:39.461Z,4.30
2019-06-20T05:47:12.606Z,3.50
2019-06-20T05:50:30.989Z,3.73
2019-06-20T05:53:55.679Z,4.43
2019-06-20T05:57:20.007Z,4.93
2019-06-20T06:00:44.322Z,4.57
2019-06-20T06:04:08.972Z,4.60
2019-06-20T06:07:33.515Z,4.50
2019-06-20T06:10:57.813Z,4.53
2019-06-20T06:14:22.108Z,4.80
2019-06-20T06:17:46.511Z,4.10
2019-06-20T06:21:10.836Z,5.00
2019-06-20T06:24:35.157Z,4.57
2019-06-20T06:27:59.938Z,4.03
2019-06-20T06:31:24.295Z,4.47
2019-06-20T06:34:48.853Z,3.80
2019-06-20T06:38:13.165Z,3.70
2019-06-20T06:41:37.532Z,3.57
2019-06-20T06:45:01.829Z,4.20
2019-06-20T06:48:27.275Z,3.90
2019-06-20T06:51:52.845Z,3.67
2019-06-20T06:55:17.598Z,4.17
2019-06-20T06:58:41.931Z,4.00
2019-06-20T07:02:06.278Z,3.83
2019-06-20T07:05:30.644Z,3.90
2019-06-20T07:08:55.140Z,3.57
2019-06-20T07:12:19.420Z,3.67
2019-06-20T07:15:44.273Z,4.37
2019-06-20T07:19:08.557Z,4.13
2019-06-20T07:22:32.872Z,4.50
2019-06-20T07:25:57.243Z,3.87
2019-06-20T07:29:23.073Z,3.67
2019-06-20T07:32:47.354Z,3.27
2019-06-20T07:36:11.646Z,3.43
2019-06-20T07:39:35.939Z,4.00
2019-06-20T07:43:00.249Z,3.77
2019-06-20T07:46:24.541Z,5.67
2019-06-20T07:49:50.382Z,4.90
2019-06-20T07:53:14.660Z,3.87
2019-06-20T07:56:39.350Z,4.40
2019-06-20T08:00:12.763Z,4.33
2019-06-20T08:03:37.060Z,4.30
2019-06-20T08:07:01.354Z,3.90
2019-06-20T08:10:25.987Z,3.98
2019-06-20T08:13:50.289Z,4.28
2019-06-20T08:17:14.573Z,4.15
2019-06-20T08:20:39.371Z,4.37
2019-06-20T08:24:03.729Z,4.67
2019-06-20T08:27:46.106Z,4.30
2019-06-20T08:31:10.393Z,4.62
2019-06-20T08:34:34.685Z,4.60
2019-06-20T08:38:01.217Z,4.55
2019-06-20T08:41:25.739Z,3.92
2019-06-20T08:44:51.019Z,2.65
2019-06-20T08:48:15.313Z,3.42
2019-06-20T08:51:39.610Z,3.42
2019-06-20T08:55:05.928Z,2.87
2019-06-20T08:58:30.252Z,2.72
2019-06-20T09:01:56.624Z,2.47
2019-06-20T09:05:21.357Z,2.60
2019-06-20T09:08:45.643Z,2.50
2019-06-20T09:12:09.948Z,2.60
2019-06-20T09:15:34.974Z,2.22
2019-06-20T09:19:00.481Z,2.10
2019-06-20T09:22:25.291Z,2.58
2019-06-20T09:25:51.131Z,2.22
2019-06-20T09:29:15.598Z,2.17
2019-06-20T09:32:40.409Z,2.47
2019-06-20T09:36:04.706Z,2.00
2019-06-20T09:39:29.009Z,1.85
2019-06-20T09:42:54.499Z,2.10
2019-06-20T09:46:19.307Z,1.90
2019-06-20T09:49:44.667Z,1.87
2019-06-20T09:53:08.978Z,1.70
2019-06-20T09:56:33.271Z,1.75
2019-06-20T10:00:07.579Z,1.50
2019-06-20T10:03:23.745Z,1.85
2019-06-20T10:06:48.668Z,1.90
2019-06-20T10:10:14.263Z,1.75
2019-06-20T10:13:39.524Z,1.62
2019-06-20T10:17:04.284Z,1.55
2019-06-20T10:20:28.641Z,1.92
2019-06-20T10:23:53.957Z,1.98
2019-06-20T10:27:18.288Z,1.90
2019-06-20T10:30:42.607Z,1.85
2019-06-20T10:34:06.894Z,1.27
2019-06-20T10:37:31.532Z,1.20
2019-06-20T10:40:59.540Z,1.20
2019-06-20T10:44:22.288Z,1.85
2019-06-20T10:47:47.294Z,1.98
2019-06-20T10:51:32.813Z,1.50
2019-06-20T10:54:57.118Z,1.87
2019-06-20T10:58:21.508Z,1.70
2019-06-20T11:01:46.651Z,2.05
2019-06-20T11:05:11.614Z,2.20
2019-06-20T11:08:36.408Z,2.27
2019-06-20T11:12:00.704Z,1.87
2019-06-20T11:15:26.343Z,1.00
2019-06-20T11:18:50.646Z,1.17
2019-06-20T11:22:14.998Z,1.30
2019-06-20T11:25:40.335Z,1.12
2019-06-20T11:29:06.529Z,1.35
2019-06-20T11:32:30.821Z,1.40
2019-06-20T11:35:55.129Z,1.77
2019-06-20T11:39:19.417Z,1.62
2019-06-20T11:42:44.648Z,1.72
2019-06-20T11:46:09.068Z,1.82
2019-06-20T11:49:34.588Z,1.50
2019-06-20T11:52:59.510Z,1.80
2019-06-20T11:56:23.795Z,1.90
2019-06-20T11:59:48.073Z,1.40
2019-06-20T12:03:12.509Z,1.45
2019-06-20T12:06:36.809Z,1.25
2019-06-20T12:10:01.620Z,1.02
2019-06-20T12:13:25.909Z,1.15
2019-06-20T12:16:50.228Z,1.20
2019-06-20T12:20:15.540Z,0.90
2019-06-20T12:23:40.671Z,1.30
2019-06-20T12:27:05.083Z,1.20
2019-06-20T12:30:29.932Z,1.00
2019-06-20T12:33:54.204Z,1.10
2019-06-20T12:37:18.617Z,0.90
2019-06-20T12:40:44.088Z,1.05
2019-06-20T12:44:08.615Z,1.15
2019-06-20T12:47:32.964Z,1.22
2019-06-20T12:50:57.277Z,1.35
2019-06-20T12:54:21.570Z,1.60
2019-06-20T12:57:46.598Z,1.65
2019-06-20T13:01:11.042Z,1.20
2019-06-20T13:04:35.450Z,1.50
2019-06-20T13:07:59.747Z,1.37
2019-06-20T13:11:25.652Z,1.10
2019-06-20T13:14:49.940Z,1.30
2019-06-20T13:18:14.249Z,1.40
2019-06-20T13:21:39.269Z,1.25
2019-06-20T13:25:09.152Z,1.10
2019-06-20T13:28:34.356Z,1.27
2019-06-20T13:32:04.300Z,0.80
2019-06-20T13:35:24.756Z,1.20
2019-06-20T13:38:50.158Z,0.90
2019-06-20T13:42:14.446Z,1.30
2019-06-20T13:45:40.536Z,1.20
2019-06-20T13:49:06.525Z,0.70
2019-06-20T13:52:33.961Z,0.85
2019-06-20T13:55:56.940Z,0.80
2019-06-20T13:59:21.586Z,1.15
2019-06-20T14:02:47.383Z,1.02
2019-06-20T14:06:12.849Z,0.90
2019-06-20T14:09:37.141Z,0.70
2019-06-20T14:13:18.051Z,0.72
2019-06-20T14:16:29.226Z,0.60
2019-06-20T14:19:53.525Z,0.50
2019-06-20T14:23:18.907Z,0.70
2019-06-20T14:26:44.789Z,0.47
2019-06-20T14:30:10.768Z,0.65
2019-06-20T14:33:36.025Z,0.80
2019-06-20T14:37:00.457Z,0.60
2019-06-20T14:40:24.737Z,0.70
2019-06-20T14:43:49.632Z,0.50
2019-06-20T14:47:15.815Z,0.70
2019-06-20T14:50:40.232Z,0.60
2019-06-20T14:54:04.581Z,0.98
2019-06-20T14:57:29.361Z,1.20
2019-06-20T15:00:54.192Z,2.30
2019-06-20T15:04:18.671Z,2.02
2019-06-20T15:07:45.058Z,2.47
2019-06-20T15:11:12.035Z,2.30
2019-06-20T15:14:35.575Z,2.70
2019-06-20T15:17:59.889Z,2.70
2019-06-20T15:21:24.409Z,2.58
2019-06-20T15:24:51.501Z,2.85
2019-06-20T15:28:14.805Z,3.20
2019-06-20T15:31:39.274Z,3.40
2019-06-20T15:35:08.673Z,3.25
2019-06-20T15:38:32.950Z,3.30
2019-06-20T15:41:58.543Z,3.25
2019-06-20T15:45:24.586Z,3.22
2019-06-20T15:48:48.930Z,3.60
2019-06-20T15:52:13.222Z,3.00
2019-06-20T15:55:37.685Z,2.40
2019-06-20T15:59:01.963Z,2.92
2019-06-20T16:02:26.285Z,2.85
2019-06-20T16:05:50.560Z,2.55
2019-06-20T16:09:15.312Z,3.22
2019-06-20T16:12:39.611Z,2.80
2019-06-20T16:16:04.514Z,2.72
2019-06-20T16:19:29.819Z,2.60
2019-06-20T16:22:54.162Z,2.80
2019-06-20T16:26:18.506Z,2.42
2019-06-20T16:29:42.857Z,2.47
2019-06-20T16:33:07.147Z,3.00
2019-06-20T16:36:31.888Z,4.10
2019-06-20T16:39:56.205Z,2.35
2019-06-20T16:43:20.556Z,2.05
2019-06-20T16:46:44.841Z,2.47
2019-06-20T16:50:10.769Z,2.22
2019-06-20T16:53:35.077Z,2.40
2019-06-20T16:56:59.369Z,2.10
2019-06-20T17:00:23.931Z,1.82
2019-06-20T17:03:48.229Z,1.70
2019-06-20T17:07:12.970Z,1.70
2019-06-20T17:10:37.246Z,1.30
2019-06-20T17:14:01.542Z,1.27
2019-06-20T17:17:25.841Z,1.40
2019-06-20T17:20:50.138Z,1.30
2019-06-20T17:24:15.159Z,1.25
2019-06-20T17:27:39.591Z,1.40
2019-06-20T17:31:04.529Z,0.95
2019-06-20T17:34:29.201Z,1.98
2019-06-20T17:37:53.589Z,1.50
2019-06-20T17:41:17.957Z,1.22
2019-06-20T17:44:42.254Z,1.07
2019-06-20T17:48:06.600Z,1.10
2019-06-20T17:51:30.884Z,1.12
2019-06-20T17:54:55.242Z,1.20
2019-06-20T17:58:19.539Z,1.60
2019-06-20T18:01:44.817Z,1.10
2019-06-20T18:05:09.641Z,1.37
2019-06-20T18:08:34.072Z,1.30
2019-06-20T18:11:58.359Z,1.32
2019-06-20T18:15:23.868Z,1.60
2019-06-20T18:18:48.147Z,1.30
2019-06-20T18:22:12.550Z,1.70
2019-06-20T18:25:36.829Z,1.52
2019-06-20T18:29:01.525Z,1.60
2019-06-20T18:32:25.815Z,1.60
2019-06-20T18:35:50.218Z,1.60
2019-06-20T18:39:14.588Z,2.02
2019-06-20T18:42:39.723Z,1.75
2019-06-20T18:46:04.359Z,1.40
2019-06-20T18:49:29.501Z,1.50
2019-06-20T18:52:54.252Z,1.60
2019-06-20T18:56:18.643Z,1.30
2019-06-20T18:59:42.985Z,1.22
2019-06-20T19:03:07.296Z,2.00
2019-06-20T19:06:36.192Z,1.87
2019-06-20T19:09:58.600Z,1.75
2019-06-20T19:13:22.898Z,2.00
2019-06-20T19:16:47.663Z,2.00
2019-06-20T19:20:12.286Z,1.62
2019-06-20T19:23:36.648Z,1.75
2019-06-20T19:27:00.944Z,1.87
2019-06-20T19:30:37.491Z,2.00
2019-06-20T19:34:01.793Z,1.70
2019-06-20T19:37:26.213Z,1.90
2019-06-20T19:40:50.987Z,1.98
2019-06-20T19:44:15.375Z,2.00
2019-06-20T19:47:40.406Z,2.40
2019-06-20T19:51:05.027Z,1.72
2019-06-20T19:54:29.306Z,1.90
2019-06-20T19:57:53.711Z,2.10
2019-06-20T20:01:17.994Z,2.15
2019-06-20T20:04:42.313Z,1.95
2019-06-20T20:08:07.146Z,2.52
2019-06-20T20:11:31.512Z,2.52
2019-06-20T20:14:55.903Z,2.37
2019-06-20T20:18:20.283Z,1.90
2019-06-20T20:21:44.558Z,2.20
2019-06-20T20:25:09.412Z,2.08
2019-06-20T20:28:33.699Z,2.60
2019-06-20T20:31:58.024Z,2.10
2019-06-20T20:35:34.846Z,2.00
2019-06-20T20:38:48.315Z,2.12
2019-06-20T20:42:12.614Z,2.20
2019-06-20T20:45:36.903Z,2.33
2019-06-20T20:49:01.212Z,2.60
2019-06-20T20:52:25.515Z,2.47
2019-06-20T20:55:49.833Z,2.30
2019-06-20T20:59:14.664Z,2.58
2019-06-20T21:02:38.974Z,2.52
2019-06-20T21:06:04.244Z,2.55
2019-06-20T21:09:28.518Z,2.40
2019-06-20T21:12:52.833Z,2.60
2019-06-20T21:16:17.119Z,2.30
2019-06-20T21:19:41.440Z,2.12
2019-06-20T21:23:05.730Z,2.62
2019-06-20T21:26:30.016Z,2.70
2019-06-20T21:29:54.314Z,2.25
2019-06-20T21:33:18.991Z,2.42
2019-06-20T21:36:43.307Z,3.10
2019-06-20T21:40:07.919Z,2.50
2019-06-20T21:43:32.261Z,2.70
2019-06-20T21:46:56.559Z,2.40
2019-06-20T21:50:22.084Z,2.60
2019-06-20T21:53:46.354Z,2.63
2019-06-20T21:57:10.660Z,2.40
2019-06-20T22:00:39.342Z,2.43
2019-06-20T22:04:05.311Z,2.60
2019-06-20T22:07:29.600Z,2.77
2019-06-20T22:10:53.934Z,2.83
2019-06-20T22:14:21.117Z,2.20
2019-06-20T22:17:45.426Z,2.93
2019-06-20T22:21:09.694Z,2.67
2019-06-20T22:24:33.999Z,2.80
2019-06-20T22:27:59.417Z,2.53
2019-06-20T22:31:23.702Z,2.13
2019-06-20T22:34:47.989Z,2.83
2019-06-20T22:38:12.721Z,3.13
2019-06-20T22:41:37.670Z,2.60
2019-06-20T22:45:01.946Z,2.80
2019-06-20T22:48:26.318Z,3.10
2019-06-20T22:51:50.597Z,2.90
2019-06-20T22:55:15.965Z,2.53
2019-06-20T22:58:40.254Z,2.47
2019-06-20T23:02:04.573Z,2.33
2019-06-20T23:05:28.918Z,2.80
2019-06-20T23:08:53.308Z,2.40
2019-06-20T23:12:17.578Z,2.30
2019-06-20T23:15:42.928Z,2.20
2019-06-20T23:19:08.199Z,2.43
2019-06-20T23:22:32.481Z,2.30
2019-06-20T23:25:58.429Z,2.03
2019-06-20T23:29:22.719Z,2.27
2019-06-20T23:32:47.904Z,2.30
2019-06-20T23:36:12.271Z,2.60
2019-06-20T23:39:36.643Z,2.57
2019-06-20T23:43:01.438Z,2.60
2019-06-20T23:46:25.748Z,2.43
2019-06-20T23:49:50.031Z,1.93
2019-06-20T23:53:19.038Z,2.60
2019-06-20T23:56:43.323Z,2.93
